world map with MEB marked

MEB - Airport

This information may not be accurate or current and is not valid for navigation or flight planning. No warranty of fitness for any purpose is made or implied.

flag of Victoriaflag of Australia

Donate via PayPal

Additional information is available on the NEW Great Circle Mapper

Location
City:  Melbourne, Victoria, Australia
Name:Essendon Airport
ICAO / IATA:YMEN / MEB

Details
Type:Airport (Aerodrome, Airfield)
Use:Public/Civil
Latitude:37°43'41"S (-37.728055)
Longitude:144°54'07"E (144.901944)
Datum:WGS 1984
Elevation:282 ft (86 m)
Runways:2
Longest:6302 × 148 ft (1921 × 45 m)

Time
Timezone:UTC+10 (DST+11)
Local Time:

Weather
METAR:YMEN  201700Z AUTO 33007KT 9999 // NCD 07/06 Q1026

Related Locations
Nearby:
Farthest:FLW: 12194 mi / 19624 km
Flores Island [Santa Cruz], Azores, PT

Find:

   beyond  
but within

Other Information
Maps:
Links:
Sources:

  


 


Great Circle Mapper   Great Circle Mapper
Great Circle Mapper FAQ   Great Circle Mapper FAQ
  Karl's Home Page
KLSē   KLSē Home
   GC on Facebook
Airlines of the World   Airlines of the World
Donate via PayPal


Copyright © 2004-2014, Karl L. Swartz. All rights reserved.
All trademarks mentioned herein belong to their respective owners.

Please see credits for attribution and copyright information.

Karl Swartz <karl@kls2.com>
  Powered by FreeBSD
Valid HTML 4.01!
Labeled with ICRA
hCard Microformat
Geo Microformat